Time,TemperatureF,DewpointF,PressureIn,WindDirection,WindDirectionDegrees,WindSpeedMPH,WindSpeedGustMPH,Humidity,HourlyPrecipIn,Conditions,Clouds,dailyrainin,SoftwareType,DateUTC
2013-10-05 00:01:00,67.3,65.5,29.53,South,180,0.0,0.0,94,0.00,,,0.00,VWS V14.01,2013-10-05 04:01:00,
2013-10-05 00:02:00,67.3,65.5,29.53,WSW,248,0.0,0.0,94,0.00,,,0.00,VWS V14.01,2013-10-05 04:02:00,
2013-10-05 00:07:00,67.3,65.5,29.53,South,180,0.0,0.0,94,0.00,,,0.00,VWS V14.01,2013-10-05 04:07:00,
2013-10-05 00:12:00,67.3,65.5,29.53,WSW,248,0.0,0.0,94,0.00,,,0.00,VWS V14.01,2013-10-05 04:12:00,
2013-10-05 00:17:00,67.3,65.5,29.53,North,0,0.0,0.0,94,0.00,,,0.00,VWS V14.01,2013-10-05 04:17:00,
2013-10-05 00:22:00,67.1,65.3,29.53,NE,45,0.0,0.0,94,0.00,,,0.00,VWS V14.01,2013-10-05 04:22:00,
2013-10-05 00:27:00,66.9,65.1,29.53,SE,135,2.7,2.7,94,0.00,,,0.00,VWS V14.01,2013-10-05 04:27:00,
2013-10-05 00:32:00,66.9,65.1,29.53,ENE,68,0.0,0.0,94,0.00,,,0.00,VWS V14.01,2013-10-05 04:32:00,
2013-10-05 00:37:00,66.9,65.1,29.53,NE,45,0.0,0.0,94,0.00,,,0.00,VWS V14.01,2013-10-05 04:37:00,
2013-10-05 00:42:00,66.9,65.1,29.53,SSW,202,3.1,3.1,94,0.00,,,0.00,VWS V14.01,2013-10-05 04:42:00,
2013-10-05 00:48:00,66.9,65.4,29.56,SSW,202,2.7,2.7,95,0.00,,,0.00,VWS V14.01,2013-10-05 04:48:00,
2013-10-05 00:53:00,66.7,65.3,29.56,SSW,202,0.0,0.0,95,0.00,,,0.00,VWS V14.01,2013-10-05 04:53:00,
2013-10-05 00:58:00,66.7,65.3,29.56,SSW,202,0.0,0.0,95,0.00,,,0.00,VWS V14.01,2013-10-05 04:58:00,
2013-10-05 01:03:00,66.6,64.8,29.53,NNE,22,0.0,0.0,94,0.00,,,0.00,VWS V14.01,2013-10-05 05:03:00,
2013-10-05 01:08:00,66.6,64.8,29.53,NE,45,1.3,1.3,94,0.00,,,0.00,VWS V14.01,2013-10-05 05:08:00,
2013-10-05 01:13:00,66.6,64.8,29.53,NE,45,0.0,0.0,94,0.00,,,0.00,VWS V14.01,2013-10-05 05:13:00,
2013-10-05 01:18:00,66.4,64.6,29.56,NNE,22,1.3,1.3,94,0.00,,,0.00,VWS V14.01,2013-10-05 05:18:00,
2013-10-05 01:23:00,66.4,64.6,29.56,NW,315,0.0,0.0,94,0.00,,,0.00,VWS V14.01,2013-10-05 05:23:00,
2013-10-05 01:28:00,66.4,64.9,29.56,NW,315,0.0,0.0,95,0.00,,,0.00,VWS V14.01,2013-10-05 05:28:00,
2013-10-05 01:33:00,66.2,64.7,29.56,SSW,202,2.5,2.5,95,0.00,,,0.00,VWS V14.01,2013-10-05 05:33:00,
2013-10-05 01:38:00,66.2,64.7,29.56,SSW,202,2.7,2.7,95,0.00,,,0.00,VWS V14.01,2013-10-05 05:38:00,
2013-10-05 01:43:00,66.0,64.6,29.56,SSW,202,0.0,0.0,95,0.00,,,0.00,VWS V14.01,2013-10-05 05:43:00,
2013-10-05 01:49:00,65.8,64.4,29.56,SSW,202,0.0,0.0,95,0.00,,,0.00,VWS V14.01,2013-10-05 05:49:00,
2013-10-05 01:54:00,65.7,64.2,29.56,WSW,248,1.6,1.6,95,0.00,,,0.00,VWS V14.01,2013-10-05 05:54:00,
2013-10-05 01:59:00,65.7,64.2,29.56,WSW,248,0.0,0.0,95,0.00,,,0.00,VWS V14.01,2013-10-05 05:59:00,
2013-10-05 02:04:00,65.7,64.2,29.56,WSW,248,0.0,0.0,95,0.00,,,0.00,VWS V14.01,2013-10-05 06:04:00,
2013-10-05 02:09:00,65.8,64.4,29.56,WSW,248,0.0,0.0,95,0.00,,,0.00,VWS V14.01,2013-10-05 06:09:00,
2013-10-05 02:14:00,65.8,64.4,29.56,WSW,248,0.0,0.0,95,0.00,,,0.00,VWS V14.01,2013-10-05 06:14:00,
2013-10-05 02:19:00,65.7,64.2,29.56,WSW,248,0.0,0.0,95,0.00,,,0.00,VWS V14.01,2013-10-05 06:19:00,
2013-10-05 02:24:00,65.8,64.7,29.56,WSW,248,1.3,1.3,96,0.00,,,0.00,VWS V14.01,2013-10-05 06:24:00,
2013-10-05 02:29:00,65.8,64.7,29.56,WSW,248,0.0,0.0,96,0.00,,,0.00,VWS V14.01,2013-10-05 06:29:00,
2013-10-05 02:34:00,65.7,64.5,29.56,NW,315,0.0,0.0,96,0.00,,,0.00,VWS V14.01,2013-10-05 06:34:00,
2013-10-05 02:39:00,65.5,64.0,29.56,NNW,338,0.0,0.0,95,0.00,,,0.00,VWS V14.01,2013-10-05 06:39:00,
2013-10-05 02:44:00,65.5,64.0,29.56,NNW,338,0.0,0.0,95,0.00,,,99.99,VWS V14.01,2013-10-05 06:44:00,
2013-10-05 02:49:00,65.7,64.5,29.56,NNW,338,0.0,0.0,96,0.00,,,99.99,VWS V14.01,2013-10-05 06:49:00,
2013-10-05 02:54:00,65.7,64.5,29.56,ENE,68,0.0,0.0,96,0.00,,,99.99,VWS V14.01,2013-10-05 06:54:00,
2013-10-05 02:59:00,65.3,63.8,29.56,SSE,158,2.0,2.0,95,0.00,,,99.99,VWS V14.01,2013-10-05 06:59:00,
2013-10-05 03:04:00,65.1,63.3,29.53,East,90,0.0,0.0,94,0.00,,,99.99,VWS V14.01,2013-10-05 07:04:00,
2013-10-05 03:09:00,64.9,63.2,29.53,ENE,68,0.0,0.0,94,0.00,,,99.99,VWS V14.01,2013-10-05 07:09:00,
2013-10-05 03:14:00,64.8,63.0,29.53,NE,45,0.0,0.0,94,0.00,,,99.99,VWS V14.01,2013-10-05 07:14:00,
2013-10-05 03:19:00,64.6,62.5,29.56,NE,45,0.0,0.0,93,0.00,,,99.99,VWS V14.01,2013-10-05 07:19:00,
2013-10-05 03:24:00,64.6,62.5,29.56,NE,45,0.0,0.0,93,0.00,,,99.99,VWS V14.01,2013-10-05 07:24:00,
2013-10-05 03:30:00,64.4,62.6,29.56,NE,45,0.0,0.0,94,0.00,,,99.99,VWS V14.01,2013-10-05 07:30:00,
2013-10-05 03:35:00,64.4,62.6,29.56,ENE,68,2.0,2.0,94,0.00,,,99.99,VWS V14.01,2013-10-05 07:35:00,
2013-10-05 03:40:00,64.2,62.5,29.56,East,90,0.0,0.0,94,0.00,,,99.99,VWS V14.01,2013-10-05 07:40:00,
2013-10-05 03:45:00,64.2,62.8,29.56,East,90,0.0,0.0,95,0.00,,,99.99,VWS V14.01,2013-10-05 07:45:00,
2013-10-05 03:50:00,64.2,62.8,29.56,NE,45,0.0,0.0,95,0.00,,,99.99,VWS V14.01,2013-10-05 07:50:00,
2013-10-05 03:55:00,64.2,62.8,29.56,NE,45,0.0,0.0,95,0.00,,,99.99,VWS V14.01,2013-10-05 07:55:00,
2013-10-05 04:00:00,64.2,62.8,29.56,NE,45,0.0,0.0,95,0.00,,,99.99,VWS V14.01,2013-10-05 08:00:00,
2013-10-05 04:05:00,64.2,62.8,29.56,NE,45,0.0,0.0,95,0.00,,,99.99,VWS V14.01,2013-10-05 08:05:00,
2013-10-05 04:10:00,64.2,63.1,29.56,NNE,22,0.0,0.0,96,0.00,,,99.99,VWS V14.01,2013-10-05 08:10:00,
2013-10-05 04:15:00,64.0,62.9,29.56,NW,315,0.0,0.0,96,0.00,,,99.99,VWS V14.01,2013-10-05 08:15:00,
2013-10-05 04:20:00,63.9,62.7,29.56,NW,315,0.0,0.0,96,0.00,,,99.99,VWS V14.01,2013-10-05 08:20:00,
2013-10-05 04:25:00,63.9,62.7,29.56,WNW,292,0.0,0.0,96,0.00,,,99.99,VWS V14.01,2013-10-05 08:25:00,
2013-10-05 04:31:00,63.9,62.7,29.56,West,270,0.0,0.0,96,0.00,,,99.99,VWS V14.01,2013-10-05 08:31:00,
2013-10-05 04:36:00,63.9,62.7,29.56,West,270,0.0,0.0,96,0.00,,,99.99,VWS V14.01,2013-10-05 08:36:00,
2013-10-05 04:41:00,63.9,62.7,29.56,West,270,0.0,0.0,96,0.00,,,99.99,VWS V14.01,2013-10-05 08:41:00,
2013-10-05 04:46:00,63.9,62.7,29.53,West,270,0.0,0.0,96,0.00,,,99.99,VWS V14.01,2013-10-05 08:46:00,
2013-10-05 04:51:00,64.0,62.9,29.53,West,270,0.0,0.0,96,0.00,,,99.99,VWS V14.01,2013-10-05 08:51:00,
2013-10-05 04:56:00,64.0,62.9,29.53,North,0,0.0,0.0,96,0.00,,,99.99,VWS V14.01,2013-10-05 08:56:00,
2013-10-05 05:01:00,64.0,62.9,29.56,North,0,0.0,0.0,96,0.00,,,99.99,VWS V14.01,2013-10-05 09:01:00,
2013-10-05 05:06:00,63.9,62.7,29.56,North,0,0.0,0.0,96,0.00,,,99.99,VWS V14.01,2013-10-05 09:06:00,
2013-10-05 05:11:00,63.9,62.7,29.56,North,0,0.0,0.0,96,0.00,,,99.99,VWS V14.01,2013-10-05 09:11:00,
2013-10-05 05:16:00,63.7,62.5,29.56,WSW,248,0.0,0.0,96,0.00,,,99.99,VWS V14.01,2013-10-05 09:16:00,
2013-10-05 05:21:00,63.5,62.3,29.56,WSW,248,0.0,0.0,96,0.00,,,99.99,VWS V14.01,2013-10-05 09:21:00,
2013-10-05 05:26:00,63.7,62.5,29.56,WSW,248,0.0,0.0,96,0.00,,,99.99,VWS V14.01,2013-10-05 09:26:00,
2013-10-05 05:31:00,63.5,62.3,29.56,WSW,248,0.0,0.0,96,0.00,,,99.99,VWS V14.01,2013-10-05 09:31:00,
2013-10-05 05:36:00,63.5,62.3,29.56,WSW,248,0.0,0.0,96,0.00,,,99.99,VWS V14.01,2013-10-05 09:36:00,
2013-10-05 05:41:00,63.5,62.0,29.56,WSW,248,0.0,0.0,95,0.00,,,99.99,VWS V14.01,2013-10-05 09:41:00,
2013-10-05 05:47:00,63.5,62.3,29.56,WSW,248,0.0,0.0,96,0.00,,,99.99,VWS V14.01,2013-10-05 09:47:00,
2013-10-05 05:52:00,63.3,62.2,29.56,WSW,248,0.0,0.0,96,0.00,,,99.99,VWS V14.01,2013-10-05 09:52:00,
2013-10-05 05:57:00,63.3,62.2,29.56,WSW,248,0.0,0.0,96,0.00,,,99.99,VWS V14.01,2013-10-05 09:57:00,
2013-10-05 06:02:00,63.3,62.2,29.56,WSW,248,0.9,0.9,96,0.00,,,99.99,VWS V14.01,2013-10-05 10:02:00,
2013-10-05 06:07:00,63.1,62.0,29.56,WSW,248,0.0,0.0,96,0.00,,,99.99,VWS V14.01,2013-10-05 10:07:00,
2013-10-05 06:12:00,63.0,61.5,29.56,WSW,248,0.0,0.0,95,0.00,,,99.99,VWS V14.01,2013-10-05 10:12:00,
2013-10-05 06:17:00,63.0,61.5,29.56,WSW,248,0.0,0.0,95,0.00,,,99.99,VWS V14.01,2013-10-05 10:17:00,
2013-10-05 06:22:00,62.8,61.3,29.56,WSW,248,0.0,0.0,95,0.00,,,99.99,VWS V14.01,2013-10-05 10:22:00,
2013-10-05 06:27:00,62.8,61.3,29.56,WSW,248,0.0,0.0,95,0.00,,,99.99,VWS V14.01,2013-10-05 10:27:00,
2013-10-05 06:32:00,62.6,61.2,29.56,WSW,248,0.0,0.0,95,0.00,,,99.99,VWS V14.01,2013-10-05 10:32:00,
2013-10-05 06:37:00,62.6,61.2,29.56,NNE,22,0.0,0.0,95,0.00,,,99.99,VWS V14.01,2013-10-05 10:37:00,
2013-10-05 06:43:00,62.6,61.2,29.56,NNE,22,0.0,0.0,95,0.00,,,99.99,VWS V14.01,2013-10-05 10:43:00,
2013-10-05 06:48:00,62.6,61.2,29.56,NE,45,0.0,0.0,95,0.00,,,99.99,VWS V14.01,2013-10-05 10:48:00,
2013-10-05 06:53:00,62.6,61.2,29.56,NE,45,0.0,0.0,95,0.00,,,99.99,VWS V14.01,2013-10-05 10:53:00,
2013-10-05 06:58:00,62.6,61.5,29.56,NE,45,0.0,0.0,96,0.00,,,99.99,VWS V14.01,2013-10-05 10:58:00,
2013-10-05 07:03:00,62.6,61.5,29.59,NE,45,0.0,0.0,96,0.00,,,99.99,VWS V14.01,2013-10-05 11:03:00,
2013-10-05 07:08:00,62.6,61.5,29.59,ENE,68,0.0,0.0,96,0.00,,,99.99,VWS V14.01,2013-10-05 11:08:00,
2013-10-05 07:13:00,62.6,61.5,29.59,NE,45,0.0,0.0,96,0.00,,,99.99,VWS V14.01,2013-10-05 11:13:00,
2013-10-05 07:18:00,62.6,61.5,29.56,NE,45,0.0,0.0,96,0.00,,,99.99,VWS V14.01,2013-10-05 11:18:00,
2013-10-05 07:23:00,62.6,61.5,29.56,NE,45,0.0,0.0,96,0.00,,,99.99,VWS V14.01,2013-10-05 11:23:00,
2013-10-05 07:28:00,62.6,61.5,29.56,NE,45,0.0,0.0,96,0.00,,,99.99,VWS V14.01,2013-10-05 11:28:00,
2013-10-05 07:33:00,62.6,61.5,29.59,NE,45,0.0,0.0,96,0.00,,,99.99,VWS V14.01,2013-10-05 11:33:00,
2013-10-05 07:38:00,62.6,61.5,29.59,NE,45,0.0,0.0,96,0.00,,,99.99,VWS V14.01,2013-10-05 11:38:00,
2013-10-05 07:44:00,62.6,61.5,29.59,NE,45,0.0,0.0,96,0.00,,,99.99,VWS V14.01,2013-10-05 11:44:00,
2013-10-05 07:49:00,62.8,61.6,29.59,ENE,68,0.0,0.0,96,0.00,,,99.99,VWS V14.01,2013-10-05 11:49:00,
2013-10-05 07:54:00,63.0,62.1,29.59,East,90,0.9,0.9,97,0.00,,,99.99,VWS V14.01,2013-10-05 11:54:00,
2013-10-05 07:59:00,63.1,62.3,29.59,ESE,112,2.2,2.2,97,0.00,,,99.99,VWS V14.01,2013-10-05 11:59:00,
2013-10-05 08:04:00,63.3,62.5,29.59,NE,45,0.0,0.0,97,0.00,,,99.99,VWS V14.01,2013-10-05 12:04:00,
2013-10-05 08:09:00,63.5,62.6,29.59,NE,45,0.0,0.0,97,0.00,,,99.99,VWS V14.01,2013-10-05 12:09:00,
2013-10-05 08:14:00,63.7,62.8,29.59,NE,45,1.3,1.3,97,0.00,,,99.99,VWS V14.01,2013-10-05 12:14:00,
2013-10-05 08:19:00,63.7,62.8,29.59,NE,45,0.0,0.0,97,0.00,,,99.99,VWS V14.01,2013-10-05 12:19:00,
2013-10-05 08:24:00,63.9,63.0,29.59,ENE,68,1.6,1.6,97,0.00,,,99.99,VWS V14.01,2013-10-05 12:24:00,
2013-10-05 08:29:00,64.0,63.5,29.59,NE,45,1.3,1.3,98,0.00,,,99.99,VWS V14.01,2013-10-05 12:29:00,
2013-10-05 08:34:00,64.2,63.7,29.59,NE,45,2.2,2.2,98,0.00,,,99.99,VWS V14.01,2013-10-05 12:34:00,
2013-10-05 08:39:00,64.2,63.7,29.59,NE,45,2.7,2.7,98,0.00,,,99.99,VWS V14.01,2013-10-05 12:39:00,
2013-10-05 08:44:00,64.2,63.7,29.59,NNE,22,2.9,2.9,98,0.00,,,99.99,VWS V14.01,2013-10-05 12:44:00,
2013-10-05 08:49:00,64.4,63.5,29.59,NE,45,3.1,3.1,97,0.00,,,99.99,VWS V14.01,2013-10-05 12:49:00,
2013-10-05 08:54:00,64.6,64.0,29.59,NNE,22,3.4,3.4,98,0.00,,,99.99,VWS V14.01,2013-10-05 12:54:00,
2013-10-05 08:59:00,64.8,64.2,29.59,NE,45,2.5,2.5,98,0.00,,,99.99,VWS V14.01,2013-10-05 12:59:00,
2013-10-05 09:04:00,64.9,64.4,29.59,NE,45,2.0,2.0,98,0.00,,,99.99,VWS V14.01,2013-10-05 13:04:00,
2013-10-05 09:09:00,65.1,64.5,29.59,NNE,22,1.3,1.3,98,0.00,,,99.99,VWS V14.01,2013-10-05 13:09:00,
2013-10-05 09:14:00,65.3,64.7,29.59,NE,45,0.9,0.9,98,0.00,,,99.99,VWS V14.01,2013-10-05 13:14:00,
2013-10-05 09:19:00,65.5,64.9,29.59,ESE,112,2.5,2.5,98,0.00,,,99.99,VWS V14.01,2013-10-05 13:19:00,
2013-10-05 09:25:00,65.7,65.1,29.59,East,90,3.1,3.1,98,0.00,,,99.99,VWS V14.01,2013-10-05 13:25:00,
2013-10-05 09:30:00,66.0,65.4,29.59,East,90,1.6,1.6,98,0.00,,,99.99,VWS V14.01,2013-10-05 13:30:00,
2013-10-05 09:35:00,66.0,65.4,29.59,ENE,68,1.6,1.6,98,0.00,,,99.99,VWS V14.01,2013-10-05 13:35:00,
2013-10-05 09:40:00,66.2,65.6,29.59,SE,135,1.1,1.1,98,0.00,,,99.99,VWS V14.01,2013-10-05 13:40:00,
2013-10-05 09:45:00,66.4,65.8,29.59,NNE,22,0.0,0.0,98,0.00,,,99.99,VWS V14.01,2013-10-05 13:45:00,
2013-10-05 09:50:00,66.6,66.0,29.59,NE,45,0.0,0.0,98,0.00,,,99.99,VWS V14.01,2013-10-05 13:50:00,
2013-10-05 09:55:00,66.6,66.0,29.59,ESE,112,0.0,0.0,98,0.00,,,99.99,VWS V14.01,2013-10-05 13:55:00,
2013-10-05 10:00:00,66.7,66.2,29.59,NE,45,3.6,3.6,98,0.00,,,99.99,VWS V14.01,2013-10-05 14:00:00,
2013-10-05 10:05:00,66.9,66.3,29.59,NE,45,4.0,4.0,98,0.00,,,99.99,VWS V14.01,2013-10-05 14:05:00,
2013-10-05 10:10:00,67.1,66.5,29.59,NE,45,2.9,2.9,98,0.00,,,99.99,VWS V14.01,2013-10-05 14:10:00,
2013-10-05 10:15:00,67.1,66.5,29.59,SE,135,0.0,0.0,98,0.00,,,99.99,VWS V14.01,2013-10-05 14:15:00,
2013-10-05 10:20:00,67.5,66.9,29.59,NE,45,3.1,3.1,98,0.00,,,99.99,VWS V14.01,2013-10-05 14:20:00,
2013-10-05 10:25:00,67.6,67.1,29.59,NNE,22,4.0,4.0,98,0.00,,,99.99,VWS V14.01,2013-10-05 14:25:00,
2013-10-05 10:31:00,67.6,67.1,29.59,NE,45,2.9,2.9,98,0.00,,,99.99,VWS V14.01,2013-10-05 14:31:00,
2013-10-05 10:36:00,67.6,67.1,29.59,East,90,2.7,2.7,98,0.00,,,99.99,VWS V14.01,2013-10-05 14:36:00,
2013-10-05 10:41:00,67.8,67.2,29.59,ENE,68,1.6,1.6,98,0.00,,,99.99,VWS V14.01,2013-10-05 14:41:00,
2013-10-05 10:46:00,68.2,67.3,29.59,NE,45,3.8,3.8,97,0.00,,,99.99,VWS V14.01,2013-10-05 14:46:00,
2013-10-05 10:51:00,68.4,67.8,29.59,NE,45,2.9,2.9,98,0.00,,,99.99,VWS V14.01,2013-10-05 14:51:00,
2013-10-05 10:56:00,68.4,67.5,29.59,NNE,22,2.7,2.7,97,0.00,,,99.99,VWS V14.01,2013-10-05 14:56:00,
2013-10-05 11:01:00,68.5,67.7,29.59,ENE,68,4.7,4.7,97,0.00,,,99.99,VWS V14.01,2013-10-05 15:01:00,
2013-10-05 11:06:00,68.5,67.7,29.59,NE,45,4.0,4.0,97,0.00,,,99.99,VWS V14.01,2013-10-05 15:06:00,
2013-10-05 11:11:00,68.7,67.8,29.59,NNE,22,3.1,3.1,97,0.00,,,99.99,VWS V14.01,2013-10-05 15:11:00,
2013-10-05 11:16:00,68.7,67.8,29.56,NNE,22,2.9,2.9,97,0.00,,,99.99,VWS V14.01,2013-10-05 15:16:00,
2013-10-05 11:22:00,68.9,68.0,29.56,NNE,22,1.6,1.6,97,0.00,,,99.99,VWS V14.01,2013-10-05 15:22:00,
2013-10-05 11:26:00,69.1,68.2,29.56,NNE,22,2.9,2.9,97,0.00,,,99.99,VWS V14.01,2013-10-05 15:26:00,
2013-10-05 11:32:00,69.3,68.4,29.56,NE,45,2.0,2.0,97,0.00,,,99.99,VWS V14.01,2013-10-05 15:32:00,
2013-10-05 11:37:00,69.3,68.4,29.56,NE,45,3.6,3.6,97,0.00,,,99.99,VWS V14.01,2013-10-05 15:37:00,
2013-10-05 11:42:00,69.4,68.6,29.56,NNE,22,4.5,4.5,97,0.00,,,99.99,VWS V14.01,2013-10-05 15:42:00,
2013-10-05 11:47:00,69.6,68.7,29.56,NNE,22,3.1,3.1,97,0.00,,,99.99,VWS V14.01,2013-10-05 15:47:00,
2013-10-05 11:52:00,69.8,68.6,29.56,NE,45,0.0,0.0,96,0.00,,,99.99,VWS V14.01,2013-10-05 15:52:00,
2013-10-05 11:57:00,70.0,68.8,29.56,NE,45,4.9,4.9,96,0.00,,,99.99,VWS V14.01,2013-10-05 15:57:00,
2013-10-05 12:02:00,70.2,68.7,29.56,NNE,22,5.4,5.4,95,0.00,,,99.99,VWS V14.01,2013-10-05 16:02:00,
2013-10-05 12:07:00,70.5,69.0,29.56,NNE,22,4.5,4.5,95,0.00,,,99.99,VWS V14.01,2013-10-05 16:07:00,
2013-10-05 12:12:00,70.9,69.4,29.56,NE,45,5.6,5.6,95,0.00,,,99.99,VWS V14.01,2013-10-05 16:12:00,
2013-10-05 12:17:00,71.2,69.7,29.56,NNE,22,5.4,5.4,95,0.00,,,99.99,VWS V14.01,2013-10-05 16:17:00,
2013-10-05 12:22:00,71.4,69.6,29.56,NNE,22,5.6,5.6,94,0.00,,,99.99,VWS V14.01,2013-10-05 16:22:00,
2013-10-05 12:27:00,72.0,69.5,29.56,ENE,68,4.0,4.0,92,0.00,,,99.99,VWS V14.01,2013-10-05 16:27:00,
2013-10-05 12:32:00,72.1,69.4,29.56,NNE,22,4.9,4.9,91,0.00,,,99.99,VWS V14.01,2013-10-05 16:32:00,
2013-10-05 12:37:00,72.5,69.4,29.56,ESE,112,2.0,2.0,90,0.00,,,99.99,VWS V14.01,2013-10-05 16:37:00,
2013-10-05 12:42:00,72.7,69.3,29.56,SSE,158,2.7,2.7,89,0.00,,,99.99,VWS V14.01,2013-10-05 16:42:00,
2013-10-05 12:47:00,72.9,69.1,29.53,NE,45,1.1,1.1,88,0.00,,,99.99,VWS V14.01,2013-10-05 16:47:00,
2013-10-05 12:53:00,73.2,69.5,29.53,SE,135,4.5,4.5,88,0.00,,,99.99,VWS V14.01,2013-10-05 16:53:00,
2013-10-05 12:58:00,73.2,69.1,29.53,SE,135,4.5,4.5,87,0.00,,,99.99,VWS V14.01,2013-10-05 16:58:00,
2013-10-05 13:03:00,73.4,69.0,29.50,North,0,3.1,3.1,86,0.00,,,99.99,VWS V14.01,2013-10-05 17:03:00,
2013-10-05 13:08:00,73.9,69.2,29.50,NNE,22,3.6,3.6,85,0.00,,,99.99,VWS V14.01,2013-10-05 17:08:00,
2013-10-05 13:13:00,74.3,68.4,29.50,SSW,202,3.1,3.1,82,0.00,,,99.99,VWS V14.01,2013-10-05 17:13:00,
2013-10-05 13:18:00,74.3,68.1,29.50,NE,45,2.7,2.7,81,0.00,,,99.99,VWS V14.01,2013-10-05 17:18:00,
2013-10-05 13:23:00,73.9,67.8,29.50,South,180,2.9,2.9,81,0.00,,,99.99,VWS V14.01,2013-10-05 17:23:00,
2013-10-05 13:28:00,74.3,68.1,29.50,West,270,2.9,2.9,81,0.00,,,99.99,VWS V14.01,2013-10-05 17:28:00,
2013-10-05 13:33:00,75.0,68.4,29.47,NE,45,2.7,2.7,80,0.00,,,99.99,VWS V14.01,2013-10-05 17:33:00,
2013-10-05 13:38:00,75.4,68.8,29.47,SE,135,2.0,2.0,80,0.00,,,99.99,VWS V14.01,2013-10-05 17:38:00,
2013-10-05 13:43:00,75.6,68.6,29.47,SE,135,7.6,7.6,79,0.00,,,99.99,VWS V14.01,2013-10-05 17:43:00,
2013-10-05 13:49:00,75.9,68.9,29.50,NE,45,3.6,3.6,79,0.00,,,99.99,VWS V14.01,2013-10-05 17:49:00,
2013-10-05 13:54:00,76.3,68.6,29.50,WSW,248,2.7,2.7,77,0.00,,,99.99,VWS V14.01,2013-10-05 17:54:00,
2013-10-05 13:59:00,76.8,69.1,29.50,SSW,202,2.7,2.7,77,0.00,,,99.99,VWS V14.01,2013-10-05 17:59:00,
2013-10-05 14:04:00,77.2,68.3,29.50,WSW,248,2.7,2.7,74,0.00,,,99.99,VWS V14.01,2013-10-05 18:04:00,
2013-10-05 14:09:00,77.2,67.9,29.50,WSW,248,1.1,1.1,73,0.00,,,99.99,VWS V14.01,2013-10-05 18:09:00,
2013-10-05 14:14:00,77.5,68.2,29.50,SSE,158,5.4,5.4,73,0.00,,,99.99,VWS V14.01,2013-10-05 18:14:00,
2013-10-05 14:19:00,77.7,68.0,29.50,ESE,112,5.6,5.6,72,0.00,,,99.99,VWS V14.01,2013-10-05 18:19:00,
2013-10-05 14:24:00,77.9,67.3,29.50,SE,135,4.0,4.0,70,0.00,,,99.99,VWS V14.01,2013-10-05 18:24:00,
2013-10-05 14:29:00,77.9,67.3,29.50,SSE,158,5.4,5.4,70,0.00,,,99.99,VWS V14.01,2013-10-05 18:29:00,
2013-10-05 14:34:00,77.9,66.9,29.50,SSW,202,1.6,1.6,69,0.00,,,99.99,VWS V14.01,2013-10-05 18:34:00,
2013-10-05 14:39:00,77.9,66.5,29.50,SSW,202,2.5,2.5,68,0.00,,,99.99,VWS V14.01,2013-10-05 18:39:00,
2013-10-05 14:44:00,77.7,66.3,29.50,ENE,68,3.6,3.6,68,0.00,,,99.99,VWS V14.01,2013-10-05 18:44:00,
2013-10-05 14:49:00,77.5,66.2,29.47,ENE,68,3.1,3.1,68,0.00,,,99.99,VWS V14.01,2013-10-05 18:49:00,
2013-10-05 14:54:00,77.5,66.2,29.47,ENE,68,1.1,1.1,68,0.00,,,99.99,VWS V14.01,2013-10-05 18:54:00,
2013-10-05 14:59:00,77.5,66.6,29.47,East,90,3.6,3.6,69,0.00,,,99.99,VWS V14.01,2013-10-05 18:59:00,
2013-10-05 15:05:00,77.5,66.2,29.47,ENE,68,2.5,2.5,68,0.00,,,99.99,VWS V14.01,2013-10-05 19:05:00,
2013-10-05 15:10:00,77.5,66.2,29.47,ESE,112,1.1,1.1,68,0.00,,,99.99,VWS V14.01,2013-10-05 19:10:00,
2013-10-05 15:15:00,77.7,66.8,29.47,SW,225,0.0,0.0,69,0.00,,,99.99,VWS V14.01,2013-10-05 19:15:00,
2013-10-05 15:20:00,77.5,66.2,29.47,SSW,202,2.5,2.5,68,0.00,,,99.99,VWS V14.01,2013-10-05 19:20:00,
2013-10-05 15:25:00,77.5,66.2,29.47,East,90,2.9,2.9,68,0.00,,,99.99,VWS V14.01,2013-10-05 19:25:00,
2013-10-05 15:30:00,77.9,66.5,29.50,SE,135,2.9,2.9,68,0.00,,,99.99,VWS V14.01,2013-10-05 19:30:00,
2013-10-05 15:35:00,78.3,66.8,29.50,SSW,202,2.5,2.5,68,0.00,,,99.99,VWS V14.01,2013-10-05 19:35:00,
2013-10-05 15:40:00,78.6,67.2,29.50,South,180,2.2,2.2,68,0.00,,,99.99,VWS V14.01,2013-10-05 19:40:00,
2013-10-05 15:45:00,79.0,67.5,29.47,ENE,68,3.1,3.1,68,0.00,,,99.99,VWS V14.01,2013-10-05 19:45:00,
2013-10-05 15:50:00,79.2,67.3,29.47,SE,135,2.7,2.7,67,0.00,,,99.99,VWS V14.01,2013-10-05 19:50:00,
2013-10-05 15:55:00,79.0,66.7,29.47,ESE,112,1.3,1.3,66,0.00,,,99.99,VWS V14.01,2013-10-05 19:55:00,
2013-10-05 16:00:00,78.8,66.5,29.47,ESE,112,3.8,3.8,66,0.00,,,99.99,VWS V14.01,2013-10-05 20:00:00,
2013-10-05 16:05:00,78.6,66.3,29.47,SSE,158,3.1,3.1,66,0.00,,,99.99,VWS V14.01,2013-10-05 20:05:00,
2013-10-05 16:10:00,78.3,66.0,29.47,SE,135,3.6,3.6,66,0.00,,,99.99,VWS V14.01,2013-10-05 20:10:00,
2013-10-05 16:15:00,78.1,65.8,29.47,ENE,68,2.0,2.0,66,0.00,,,99.99,VWS V14.01,2013-10-05 20:15:00,
2013-10-05 16:20:00,77.7,65.5,29.47,ESE,112,0.9,0.9,66,0.00,,,99.99,VWS V14.01,2013-10-05 20:20:00,
2013-10-05 16:25:00,77.5,64.9,29.47,East,90,1.6,1.6,65,0.00,,,99.99,VWS V14.01,2013-10-05 20:25:00,
2013-10-05 16:30:00,77.4,64.7,29.47,East,90,2.0,2.0,65,0.00,,,99.99,VWS V14.01,2013-10-05 20:30:00,
2013-10-05 16:35:00,77.2,64.5,29.47,ENE,68,0.0,0.0,65,0.00,,,99.99,VWS V14.01,2013-10-05 20:35:00,
2013-10-05 16:40:00,76.8,64.6,29.47,South,180,1.1,1.1,66,0.00,,,99.99,VWS V14.01,2013-10-05 20:40:00,
2013-10-05 16:45:00,77.0,64.3,29.47,South,180,3.1,3.1,65,0.00,,,99.99,VWS V14.01,2013-10-05 20:45:00,
2013-10-05 16:50:00,77.0,64.8,29.47,WSW,248,3.4,3.4,66,0.00,,,99.99,VWS V14.01,2013-10-05 20:50:00,
2013-10-05 16:55:00,76.6,64.9,29.47,SSW,202,3.4,3.4,67,0.00,,,99.99,VWS V14.01,2013-10-05 20:55:00,
2013-10-05 17:01:00,76.3,64.5,29.47,SSW,202,2.7,2.7,67,0.00,,,99.99,VWS V14.01,2013-10-05 21:01:00,
2013-10-05 17:06:00,76.1,64.8,29.47,South,180,3.4,3.4,68,0.00,,,99.99,VWS V14.01,2013-10-05 21:06:00,
2013-10-05 17:11:00,75.7,64.4,29.47,South,180,2.5,2.5,68,0.00,,,99.99,VWS V14.01,2013-10-05 21:11:00,
2013-10-05 17:16:00,75.6,64.3,29.47,SSE,158,2.7,2.7,68,0.00,,,99.99,VWS V14.01,2013-10-05 21:16:00,
2013-10-05 17:21:00,75.4,64.1,29.47,South,180,4.9,4.9,68,0.00,,,99.99,VWS V14.01,2013-10-05 21:21:00,
2013-10-05 17:26:00,75.2,63.9,29.47,SSW,202,2.9,2.9,68,0.00,,,99.99,VWS V14.01,2013-10-05 21:26:00,
2013-10-05 17:31:00,75.0,64.2,29.47,SSE,158,3.1,3.1,69,0.00,,,99.99,VWS V14.01,2013-10-05 21:31:00,
2013-10-05 17:36:00,74.8,64.0,29.47,South,180,2.7,2.7,69,0.00,,,99.99,VWS V14.01,2013-10-05 21:36:00,
2013-10-05 17:41:00,74.7,64.2,29.47,SSE,158,2.5,2.5,70,0.00,,,99.99,VWS V14.01,2013-10-05 21:41:00,
2013-10-05 17:46:00,74.5,64.1,29.47,SSW,202,2.9,2.9,70,0.00,,,99.99,VWS V14.01,2013-10-05 21:46:00,
2013-10-05 17:51:00,74.5,64.1,29.47,SSE,158,2.9,2.9,70,0.00,,,99.99,VWS V14.01,2013-10-05 21:51:00,
2013-10-05 17:56:00,74.3,63.9,29.47,SE,135,1.6,1.6,70,0.00,,,99.99,VWS V14.01,2013-10-05 21:56:00,
2013-10-05 18:01:00,74.1,64.1,29.47,SE,135,1.1,1.1,71,0.00,,,99.99,VWS V14.01,2013-10-05 22:01:00,
2013-10-05 18:06:00,73.9,64.3,29.47,SSE,158,2.7,2.7,72,0.00,,,99.99,VWS V14.01,2013-10-05 22:06:00,
2013-10-05 18:12:00,73.9,64.0,29.47,SW,225,5.4,5.4,71,0.00,,,99.99,VWS V14.01,2013-10-05 22:12:00,
2013-10-05 18:17:00,74.1,64.1,29.50,SSW,202,11.0,11.0,71,0.00,,,99.99,VWS V14.01,2013-10-05 22:17:00,
2013-10-05 18:22:00,74.1,63.7,29.50,SSW,202,7.4,7.4,70,0.00,,,99.99,VWS V14.01,2013-10-05 22:22:00,
2013-10-05 18:27:00,74.1,63.7,29.50,SSW,202,5.6,5.6,70,0.00,,,99.99,VWS V14.01,2013-10-05 22:27:00,
2013-10-05 18:32:00,73.9,63.5,29.47,SSW,202,3.4,3.4,70,0.00,,,99.99,VWS V14.01,2013-10-05 22:32:00,
2013-10-05 18:37:00,73.6,63.2,29.47,SSW,202,6.3,6.3,70,0.00,,,99.99,VWS V14.01,2013-10-05 22:37:00,
2013-10-05 18:42:00,73.4,63.0,29.47,SSW,202,3.6,3.6,70,0.00,,,99.99,VWS V14.01,2013-10-05 22:42:00,
2013-10-05 18:47:00,73.2,63.3,29.47,WSW,248,0.9,0.9,71,0.00,,,99.99,VWS V14.01,2013-10-05 22:47:00,
2013-10-05 18:52:00,73.0,63.1,29.47,SE,135,3.1,3.1,71,0.00,,,99.99,VWS V14.01,2013-10-05 22:52:00,
2013-10-05 18:57:00,72.7,63.1,29.47,SE,135,0.9,0.9,72,0.00,,,99.99,VWS V14.01,2013-10-05 22:57:00,
2013-10-05 19:02:00,72.3,62.8,29.50,NE,45,2.5,2.5,72,0.00,,,99.99,VWS V14.01,2013-10-05 23:02:00,
2013-10-05 19:07:00,72.1,63.0,29.50,SE,135,1.6,1.6,73,0.00,,,99.99,VWS V14.01,2013-10-05 23:07:00,
2013-10-05 19:12:00,72.0,63.2,29.50,South,180,3.1,3.1,74,0.00,,,99.99,VWS V14.01,2013-10-05 23:12:00,
2013-10-05 19:17:00,72.0,63.2,29.50,SSW,202,5.6,5.6,74,0.00,,,99.99,VWS V14.01,2013-10-05 23:17:00,
2013-10-05 19:22:00,72.0,63.6,29.50,South,180,3.4,3.4,75,0.00,,,99.99,VWS V14.01,2013-10-05 23:22:00,
2013-10-05 19:28:00,71.8,63.4,29.50,SSE,158,2.9,2.9,75,0.00,,,99.99,VWS V14.01,2013-10-05 23:28:00,
2013-10-05 19:33:00,71.6,63.6,29.50,SW,225,3.4,3.4,76,0.00,,,99.99,VWS V14.01,2013-10-05 23:33:00,
2013-10-05 19:38:00,71.4,63.5,29.50,SSE,158,1.6,1.6,76,0.00,,,99.99,VWS V14.01,2013-10-05 23:38:00,
2013-10-05 19:43:00,71.2,63.7,29.50,SE,135,2.7,2.7,77,0.00,,,99.99,VWS V14.01,2013-10-05 23:43:00,
2013-10-05 19:48:00,71.2,63.7,29.50,WSW,248,0.0,0.0,77,0.00,,,99.99,VWS V14.01,2013-10-05 23:48:00,
2013-10-05 19:53:00,71.1,63.9,29.50,ENE,68,0.0,0.0,78,0.00,,,99.99,VWS V14.01,2013-10-05 23:53:00,
2013-10-05 19:58:00,71.1,63.9,29.50,NNE,22,0.0,0.0,78,0.00,,,99.99,VWS V14.01,2013-10-05 23:58:00,
2013-10-05 20:03:00,71.1,63.9,29.50,ENE,68,0.0,0.0,78,0.00,,,99.99,VWS V14.01,2013-10-06 00:03:00,
2013-10-05 20:08:00,70.9,63.7,29.50,NNE,22,0.0,0.0,78,0.00,,,99.99,VWS V14.01,2013-10-06 00:08:00,
2013-10-05 20:13:00,70.9,63.7,29.50,NW,315,0.0,0.0,78,0.00,,,99.99,VWS V14.01,2013-10-06 00:13:00,
2013-10-05 20:18:00,70.9,63.7,29.50,ESE,112,0.0,0.0,78,0.00,,,99.99,VWS V14.01,2013-10-06 00:18:00,
2013-10-05 20:23:00,70.7,63.9,29.50,WSW,248,0.0,0.0,79,0.00,,,99.99,VWS V14.01,2013-10-06 00:23:00,
2013-10-05 20:28:00,70.7,63.9,29.50,WNW,292,0.0,0.0,79,0.00,,,99.99,VWS V14.01,2013-10-06 00:28:00,
2013-10-05 20:33:00,70.7,63.9,29.50,WNW,292,0.0,0.0,79,0.00,,,99.99,VWS V14.01,2013-10-06 00:33:00,
2013-10-05 20:38:00,70.5,64.1,29.50,SSE,158,2.9,2.9,80,0.00,,,99.99,VWS V14.01,2013-10-06 00:38:00,
2013-10-05 20:43:00,70.5,64.4,29.50,South,180,3.4,3.4,81,0.00,,,99.99,VWS V14.01,2013-10-06 00:43:00,
2013-10-05 20:48:00,70.3,64.9,29.50,WSW,248,0.0,0.0,83,0.00,,,99.99,VWS V14.01,2013-10-06 00:48:00,
2013-10-05 20:54:00,70.3,65.3,29.50,WSW,248,0.0,0.0,84,0.00,,,99.99,VWS V14.01,2013-10-06 00:54:00,
2013-10-05 20:59:00,70.3,65.3,29.50,SSW,202,2.9,2.9,84,0.00,,,99.99,VWS V14.01,2013-10-06 00:59:00,
2013-10-05 21:04:00,70.2,65.4,29.53,SSW,202,3.6,3.6,85,0.00,,,99.99,VWS V14.01,2013-10-06 01:04:00,
2013-10-05 21:09:00,70.2,65.4,29.53,SSW,202,2.5,2.5,85,0.00,,,99.99,VWS V14.01,2013-10-06 01:09:00,
2013-10-05 21:14:00,70.2,65.4,29.53,WSW,248,0.0,0.0,85,0.00,,,99.99,VWS V14.01,2013-10-06 01:14:00,
2013-10-05 21:19:00,70.3,66.0,29.50,SSW,202,4.0,4.0,86,0.00,,,99.99,VWS V14.01,2013-10-06 01:19:00,
2013-10-05 21:24:00,70.5,66.1,29.50,NW,315,3.4,3.4,86,0.00,,,99.99,VWS V14.01,2013-10-06 01:24:00,
2013-10-05 21:29:00,70.5,66.1,29.50,SSW,202,3.6,3.6,86,0.00,,,99.99,VWS V14.01,2013-10-06 01:29:00,
2013-10-05 21:34:00,70.5,66.1,29.50,SW,225,2.0,2.0,86,0.00,,,99.99,VWS V14.01,2013-10-06 01:34:00,
2013-10-05 21:39:00,70.5,66.1,29.50,WSW,248,3.4,3.4,86,0.00,,,99.99,VWS V14.01,2013-10-06 01:39:00,
2013-10-05 21:44:00,70.7,66.3,29.50,SSE,158,2.7,2.7,86,0.00,,,99.99,VWS V14.01,2013-10-06 01:44:00,
2013-10-05 21:50:00,70.5,66.1,29.50,South,180,2.5,2.5,86,0.00,,,99.99,VWS V14.01,2013-10-06 01:50:00,
2013-10-05 21:55:00,70.5,66.1,29.50,SSW,202,2.9,2.9,86,0.00,,,99.99,VWS V14.01,2013-10-06 01:55:00,
2013-10-05 22:00:00,70.3,65.6,29.50,SE,135,2.5,2.5,85,0.00,,,99.99,VWS V14.01,2013-10-06 02:00:00,
2013-10-05 22:05:00,70.3,65.3,29.50,SSW,202,1.6,1.6,84,0.00,,,99.99,VWS V14.01,2013-10-06 02:05:00,
2013-10-05 22:10:00,70.3,65.3,29.50,ESE,112,2.0,2.0,84,0.00,,,99.99,VWS V14.01,2013-10-06 02:10:00,
2013-10-05 22:15:00,70.2,65.4,29.50,East,90,0.0,0.0,85,0.00,,,99.99,VWS V14.01,2013-10-06 02:15:00,
2013-10-05 22:20:00,70.0,65.3,29.50,SSE,158,3.4,3.4,85,0.00,,,99.99,VWS V14.01,2013-10-06 02:20:00,
2013-10-05 22:25:00,70.0,65.3,29.50,SSW,202,3.6,3.6,85,0.00,,,99.99,VWS V14.01,2013-10-06 02:25:00,
2013-10-05 22:30:00,69.8,65.1,29.50,South,180,2.0,2.0,85,0.00,,,99.99,VWS V14.01,2013-10-06 02:30:00,
2013-10-05 22:35:00,69.8,65.4,29.50,South,180,2.5,2.5,86,0.00,,,99.99,VWS V14.01,2013-10-06 02:35:00,
2013-10-05 22:40:00,69.6,65.2,29.50,SW,225,3.6,3.6,86,0.00,,,99.99,VWS V14.01,2013-10-06 02:40:00,
2013-10-05 22:45:00,69.8,65.4,29.50,South,180,2.5,2.5,86,0.00,,,99.99,VWS V14.01,2013-10-06 02:45:00,
2013-10-05 22:50:00,69.8,65.4,29.50,SSW,202,1.6,1.6,86,0.00,,,99.99,VWS V14.01,2013-10-06 02:50:00,
2013-10-05 22:55:00,69.6,65.2,29.50,West,270,0.0,0.0,86,0.00,,,99.99,VWS V14.01,2013-10-06 02:55:00,
2013-10-05 23:00:00,69.4,65.4,29.50,NW,315,0.0,0.0,87,0.00,,,99.99,VWS V14.01,2013-10-06 03:00:00,
2013-10-05 23:06:00,69.4,65.4,29.50,SE,135,0.0,0.0,87,0.00,,,99.99,VWS V14.01,2013-10-06 03:06:00,
2013-10-05 23:11:00,69.3,65.2,29.50,WSW,248,0.0,0.0,87,0.00,,,99.99,VWS V14.01,2013-10-06 03:11:00,
2013-10-05 23:16:00,69.3,65.2,29.50,WSW,248,0.0,0.0,87,0.00,,,99.99,VWS V14.01,2013-10-06 03:16:00,
2013-10-05 23:21:00,69.3,65.6,29.50,SW,225,0.0,0.0,88,0.00,,,0.00,VWS V14.01,2013-10-06 03:21:00,
2013-10-05 23:26:00,69.3,65.6,29.50,WSW,248,2.2,2.2,88,0.00,,,0.00,VWS V14.01,2013-10-06 03:26:00,
2013-10-05 23:31:00,69.3,65.6,29.50,SE,135,0.0,0.0,88,0.00,,,0.00,VWS V14.01,2013-10-06 03:31:00,
2013-10-05 23:36:00,69.3,65.6,29.50,South,180,2.0,2.0,88,0.00,,,0.00,VWS V14.01,2013-10-06 03:36:00,
2013-10-05 23:41:00,69.3,65.9,29.50,SSE,158,2.5,2.5,89,0.00,,,0.00,VWS V14.01,2013-10-06 03:41:00,
2013-10-05 23:46:00,69.3,65.9,29.50,SE,135,3.4,3.4,89,0.00,,,0.00,VWS V14.01,2013-10-06 03:46:00,
2013-10-05 23:51:00,69.3,65.9,29.50,SE,135,0.0,0.0,89,0.00,,,0.00,VWS V14.01,2013-10-06 03:51:00,
2013-10-05 23:56:00,69.3,66.2,29.50,NNE,22,0.0,0.0,90,0.00,,,0.00,VWS V14.01,2013-10-06 03:56:00,